Time;durP1;ratioP1;P1;durP2;ratioP2;P2;SDS_P1;SDS_P2;PMS_P1;PMS_P2;Temp;Humidity;BMP_temperature;BMP_pressure;BME280_temperature;BME280_humidity;BME280_pressure;Samples;Min_cycle;Max_cycle;Signal;HPM_P1;HPM_P2
2022/06/25 00:01:13;;;;;;;8.43;5.95;;;;;;;;;;5053697;28;20040;-78
2022/06/25 00:03:40;;;;;;;9.23;5.35;;;;;;;;;;5053845;28;20324;-78
2022/06/25 00:06:06;;;;;;;6.90;5.28;;;;;;;;;;5053865;28;20029;-78
2022/06/25 00:08:33;;;;;;;8.25;5.30;;;;;;;;;;5053766;28;20387;-78
2022/06/25 00:10:59;;;;;;;9.18;5.95;;;;;;;;;;5053712;28;20376;-78
2022/06/25 00:13:25;;;;;;;6.72;5.10;;;;;;;;;;5051417;28;20387;-78
2022/06/25 00:15:51;;;;;;;6.85;5.00;;;;;;;;;;5041546;28;20033;-78
2022/06/25 00:18:17;;;;;;;9.75;5.38;;;;;;;;;;5053648;28;20475;-78
2022/06/25 00:20:45;;;;;;;10.77;6.50;;;;;;;;;;5051914;28;20313;-77
2022/06/25 00:23:11;;;;;;;8.00;5.28;;;;;;;;;;5053495;28;20029;-78
2022/06/25 00:25:37;;;;;;;7.82;6.22;;;;;;;;;;5052762;28;20072;-78
2022/06/25 00:28:03;;;;;;;8.15;5.78;;;;;;;;;;5053373;28;20029;-77
2022/06/25 00:30:30;;;;;;;7.70;5.97;;;;;;;;;;5053315;28;20464;-78
2022/06/25 00:32:56;;;;;;;8.95;5.75;;;;;;;;;;5053188;28;20470;-78
2022/06/25 00:35:22;;;;;;;8.02;5.72;;;;;;;;;;5052993;28;20021;-78
2022/06/25 00:37:48;;;;;;;7.40;5.80;;;;;;;;;;5053230;28;20387;-77
2022/06/25 00:40:14;;;;;;;7.80;5.80;;;;;;;;;;5053183;28;20048;-78
2022/06/25 00:42:44;;;;;;;7.68;6.22;;;;;;;;;;5053002;28;20047;-78
2022/06/25 00:45:10;;;;;;;8.30;5.80;;;;;;;;;;5053039;28;20024;-78
2022/06/25 00:47:36;;;;;;;7.30;5.45;;;;;;;;;;5053247;28;20032;-77
2022/06/25 00:50:02;;;;;;;7.68;5.35;;;;;;;;;;5052927;28;20029;-77
2022/06/25 00:52:32;;;;;;;9.73;5.95;;;;;;;;;;5053011;28;20025;-77
2022/06/25 00:55:10;;;;;;;7.20;5.65;;;;;;;;;;5052701;28;20047;-78
2022/06/25 00:57:38;;;;;;;7.47;5.38;;;;;;;;;;5052809;28;20084;-78
2022/06/25 01:00:06;;;;;;;9.10;5.60;;;;;;;;;;5052922;28;20048;-77
2022/06/25 01:02:32;;;;;;;9.63;5.03;;;;;;;;;;5052715;28;20025;-77
2022/06/25 01:04:58;;;;;;;8.05;5.78;;;;;;;;;;5052877;28;20033;-78
2022/06/25 01:07:25;;;;;;;8.05;5.55;;;;;;;;;;5052593;28;20033;-77
2022/06/25 01:09:51;;;;;;;8.07;5.50;;;;;;;;;;5052513;28;20111;-78
2022/06/25 01:12:17;;;;;;;7.32;5.10;;;;;;;;;;5052355;28;20104;-78
2022/06/25 01:14:43;;;;;;;7.80;5.80;;;;;;;;;;5052406;28;20471;-77
2022/06/25 01:17:10;;;;;;;8.18;5.22;;;;;;;;;;5052418;28;20403;-77
2022/06/25 01:19:36;;;;;;;9.65;4.80;;;;;;;;;;5052114;28;20108;-77
2022/06/25 01:22:03;;;;;;;6.15;4.90;;;;;;;;;;5052385;28;20519;-77
2022/06/25 01:24:30;;;;;;;7.20;4.80;;;;;;;;;;5052332;28;20108;-77
2022/06/25 01:26:56;;;;;;;7.30;5.00;;;;;;;;;;5052097;28;20032;-77
2022/06/25 01:29:22;;;;;;;8.38;5.32;;;;;;;;;;5052348;28;20045;-77
2022/06/25 01:31:48;;;;;;;9.30;4.90;;;;;;;;;;5052127;28;20059;-77
2022/06/25 01:34:14;;;;;;;8.43;5.13;;;;;;;;;;5052085;28;20451;-77
2022/06/25 01:36:40;;;;;;;7.07;4.97;;;;;;;;;;5051207;28;20464;-77
2022/06/25 01:39:06;;;;;;;7.30;4.80;;;;;;;;;;5052028;28;20033;-77
2022/06/25 01:41:32;;;;;;;10.70;4.57;;;;;;;;;;5052159;28;20029;-77
2022/06/25 01:43:58;;;;;;;7.25;4.53;;;;;;;;;;5052101;28;20444;-77
2022/06/25 01:46:24;;;;;;;8.73;5.05;;;;;;;;;;5051751;28;20027;-77
2022/06/25 01:48:50;;;;;;;8.10;5.18;;;;;;;;;;5051756;28;20167;-78
2022/06/25 01:51:17;;;;;;;7.63;4.95;;;;;;;;;;5051815;28;20131;-78
2022/06/25 01:53:43;;;;;;;6.88;4.82;;;;;;;;;;5051606;28;20049;-77
2022/06/25 01:56:10;;;;;;;6.13;5.13;;;;;;;;;;5051544;28;20355;-77
2022/06/25 01:58:36;;;;;;;7.82;5.20;;;;;;;;;;5051712;28;20059;-78
2022/06/25 02:01:02;;;;;;;7.32;5.20;;;;;;;;;;5051688;28;20032;-77
2022/06/25 02:03:28;;;;;;;6.68;4.82;;;;;;;;;;5051811;28;20037;-77
2022/06/25 02:05:57;;;;;;;5.95;4.55;;;;;;;;;;5051732;28;20166;-77
2022/06/25 02:08:24;;;;;;;5.82;4.40;;;;;;;;;;5051511;28;20467;-77
2022/06/25 02:10:50;;;;;;;6.03;5.20;;;;;;;;;;5051547;28;20103;-77
2022/06/25 02:13:16;;;;;;;4.72;4.25;;;;;;;;;;5051642;28;20036;-77
2022/06/25 02:15:42;;;;;;;9.95;4.90;;;;;;;;;;5031962;28;20111;-77
2022/06/25 02:18:10;;;;;;;7.72;4.40;;;;;;;;;;5031819;28;20022;-77
2022/06/25 02:20:36;;;;;;;6.28;4.70;;;;;;;;;;5031453;28;20087;-77
2022/06/25 02:23:03;;;;;;;5.28;4.20;;;;;;;;;;5031571;28;20064;-77
2022/06/25 02:25:29;;;;;;;7.95;4.22;;;;;;;;;;5031559;28;20017;-77
2022/06/25 02:27:55;;;;;;;11.15;4.40;;;;;;;;;;5031432;28;20034;-77
2022/06/25 02:30:21;;;;;;;7.18;4.80;;;;;;;;;;5031415;28;20053;-77
2022/06/25 02:32:47;;;;;;;5.95;4.00;;;;;;;;;;5031400;28;20033;-77
2022/06/25 02:35:13;;;;;;;7.15;4.38;;;;;;;;;;5031792;28;20045;-77
2022/06/25 02:37:40;;;;;;;8.55;4.40;;;;;;;;;;5031416;28;20013;-77
2022/06/25 02:40:06;;;;;;;8.05;4.70;;;;;;;;;;5031481;28;20026;-78
2022/06/25 02:42:33;;;;;;;10.10;4.80;;;;;;;;;;5031440;28;20049;-77
2022/06/25 02:44:59;;;;;;;5.95;4.45;;;;;;;;;;5038353;28;20025;-77
2022/06/25 02:47:25;;;;;;;10.30;4.85;;;;;;;;;;5052370;28;20388;-78
2022/06/25 02:49:51;;;;;;;11.20;5.00;;;;;;;;;;5055143;28;20479;-77
2022/06/25 02:52:17;;;;;;;6.43;4.57;;;;;;;;;;5053577;28;20036;-77
2022/06/25 02:54:43;;;;;;;5.72;4.47;;;;;;;;;;5053777;28;20025;-77
2022/06/25 02:59:54;;;;;;;11.65;5.30;;;;;;;;;;5054902;28;20028;-78
2022/06/25 03:02:20;;;;;;;6.85;4.85;;;;;;;;;;5054900;28;20021;-78
2022/06/25 03:04:46;;;;;;;7.10;4.47;;;;;;;;;;5055387;28;20055;-77
2022/06/25 03:07:12;;;;;;;8.40;4.38;;;;;;;;;;5054899;28;20412;-77
2022/06/25 03:09:38;;;;;;;7.07;4.75;;;;;;;;;;5054652;28;20202;-77
2022/06/25 03:12:04;;;;;;;8.80;4.45;;;;;;;;;;5054880;28;20148;-77
2022/06/25 03:14:30;;;;;;;10.13;4.60;;;;;;;;;;5054409;28;20039;-77
2022/06/25 03:16:56;;;;;;;5.57;4.20;;;;;;;;;;5053354;28;20403;-77
2022/06/25 03:19:22;;;;;;;7.65;4.80;;;;;;;;;;5054357;28;20549;-77
2022/06/25 03:21:48;;;;;;;8.98;4.93;;;;;;;;;;5053203;28;20051;-77
2022/06/25 03:24:14;;;;;;;7.22;4.63;;;;;;;;;;5054485;28;20025;-77
2022/06/25 03:26:41;;;;;;;10.60;4.50;;;;;;;;;;5054284;28;20250;-77
2022/06/25 03:29:07;;;;;;;9.70;4.60;;;;;;;;;;5054244;28;20050;-78
2022/06/25 03:31:34;;;;;;;8.45;4.85;;;;;;;;;;5054346;28;20029;-78
2022/06/25 03:34:00;;;;;;;8.98;4.32;;;;;;;;;;5054063;28;20024;-77
2022/06/25 03:36:26;;;;;;;9.32;4.13;;;;;;;;;;5054329;28;20021;-78
2022/06/25 03:38:52;;;;;;;5.10;4.00;;;;;;;;;;5054184;28;20021;-77
2022/06/25 03:41:33;;;;;;;8.40;4.45;;;;;;;;;;5054052;28;20476;-77
2022/06/25 03:44:00;;;;;;;10.43;4.30;;;;;;;;;;5053850;28;20033;-77
2022/06/25 03:46:26;;;;;;;10.90;4.22;;;;;;;;;;5047804;28;20475;-78
2022/06/25 03:48:52;;;;;;;6.28;4.20;;;;;;;;;;5054203;28;20043;-78
2022/06/25 03:51:18;;;;;;;5.72;3.85;;;;;;;;;;5054133;28;20017;-77
2022/06/25 03:53:44;;;;;;;7.60;4.30;;;;;;;;;;5052981;28;20078;-78
2022/06/25 03:56:12;;;;;;;5.57;4.10;;;;;;;;;;5053116;28;20048;-78
2022/06/25 03:58:38;;;;;;;7.55;4.70;;;;;;;;;;5052540;28;20456;-78
2022/06/25 04:01:04;;;;;;;7.05;4.22;;;;;;;;;;5052736;28;20025;-77
2022/06/25 04:03:30;;;;;;;6.53;4.25;;;;;;;;;;5053088;28;20060;-77
2022/06/25 04:05:56;;;;;;;8.10;4.18;;;;;;;;;;5052806;28;20394;-78
2022/06/25 04:08:22;;;;;;;6.55;4.00;;;;;;;;;;5052778;28;20451;-77
2022/06/25 04:10:48;;;;;;;11.45;4.30;;;;;;;;;;5053022;28;20032;-77
2022/06/25 04:13:14;;;;;;;8.95;3.95;;;;;;;;;;5052703;28;20146;-78
2022/06/25 04:15:41;;;;;;;8.32;4.30;;;;;;;;;;5050094;28;20066;-78
2022/06/25 04:18:07;;;;;;;6.82;3.97;;;;;;;;;;5052899;28;20021;-78
2022/06/25 04:20:33;;;;;;;7.97;4.78;;;;;;;;;;5052704;28;20186;-78
2022/06/25 04:23:00;;;;;;;7.65;4.00;;;;;;;;;;5052841;28;20487;-78
2022/06/25 04:25:26;;;;;;;8.35;3.75;;;;;;;;;;5052828;28;20090;-78
2022/06/25 04:30:37;;;;;;;6.78;3.78;;;;;;;;;;5051879;28;20036;-78
2022/06/25 04:33:03;;;;;;;7.18;3.80;;;;;;;;;;5052955;28;20029;-77
2022/06/25 04:35:29;;;;;;;11.32;3.30;;;;;;;;;;5052716;28;20021;-78
2022/06/25 04:37:55;;;;;;;5.72;3.47;;;;;;;;;;5052833;28;20024;-77
2022/06/25 04:40:21;;;;;;;4.13;3.20;;;;;;;;;;5051079;28;20017;-77
2022/06/25 04:42:47;;;;;;;5.65;3.17;;;;;;;;;;5052693;28;20036;-78
2022/06/25 04:45:13;;;;;;;7.20;3.03;;;;;;;;;;5052891;28;20047;-77
2022/06/25 04:47:39;;;;;;;5.40;3.40;;;;;;;;;;5052970;28;20056;-78
2022/06/25 04:50:06;;;;;;;8.93;3.33;;;;;;;;;;5052978;28;20021;-78
2022/06/25 04:52:32;;;;;;;4.90;3.30;;;;;;;;;;5052873;28;20060;-78
2022/06/25 04:54:58;;;;;;;4.75;3.30;;;;;;;;;;5052771;28;20029;-78
2022/06/25 04:57:24;;;;;;;6.22;3.03;;;;;;;;;;5051220;28;20060;-78
2022/06/25 04:59:50;;;;;;;5.07;3.00;;;;;;;;;;5052768;28;20135;-78
2022/06/25 05:02:16;;;;;;;6.45;2.53;;;;;;;;;;5052499;28;20032;-78
2022/06/25 05:04:42;;;;;;;5.10;2.47;;;;;;;;;;5051187;28;20565;-79
2022/06/25 05:07:08;;;;;;;3.97;2.42;;;;;;;;;;5052536;28;20494;-78
2022/06/25 05:09:34;;;;;;;5.82;2.28;;;;;;;;;;5052580;28;20060;-79
2022/06/25 05:12:00;;;;;;;6.05;2.40;;;;;;;;;;5052092;28;20021;-79
2022/06/25 05:14:27;;;;;;;8.77;2.42;;;;;;;;;;5043247;28;20027;-79
2022/06/25 05:16:54;;;;;;;7.10;2.55;;;;;;;;;;5032415;28;20033;-79
2022/06/25 05:19:20;;;;;;;3.17;2.30;;;;;;;;;;5047235;28;20480;-78
2022/06/25 05:21:46;;;;;;;5.35;2.30;;;;;;;;;;5032570;28;20101;-78
2022/06/25 05:24:12;;;;;;;6.03;2.22;;;;;;;;;;5032402;28;20402;-79
2022/06/25 05:26:38;;;;;;;7.70;2.50;;;;;;;;;;5047682;28;20404;-78
2022/06/25 05:29:04;;;;;;;5.57;2.30;;;;;;;;;;5047406;28;20487;-79
2022/06/25 05:31:31;;;;;;;3.63;2.30;;;;;;;;;;5032251;28;20029;-79
2022/06/25 05:33:57;;;;;;;4.13;2.20;;;;;;;;;;5046078;28;20056;-79
2022/06/25 05:36:23;;;;;;;5.82;2.45;;;;;;;;;;5050640;28;20028;-79
2022/06/25 05:38:49;;;;;;;6.38;2.42;;;;;;;;;;5051884;28;20027;-79
2022/06/25 05:41:15;;;;;;;6.88;2.40;;;;;;;;;;5051872;28;20017;-79
2022/06/25 05:43:42;;;;;;;6.13;2.58;;;;;;;;;;5051240;28;20029;-79
2022/06/25 05:46:08;;;;;;;5.05;2.50;;;;;;;;;;5051211;28;20021;-79
2022/06/25 05:48:34;;;;;;;6.28;2.90;;;;;;;;;;5050064;28;20032;-79
2022/06/25 05:51:00;;;;;;;4.35;2.80;;;;;;;;;;5051597;28;20044;-79
2022/06/25 05:53:27;;;;;;;5.22;2.50;;;;;;;;;;5051782;28;20025;-79
2022/06/25 05:55:53;;;;;;;6.57;2.42;;;;;;;;;;5051712;28;20017;-78
2022/06/25 05:58:22;;;;;;;5.72;2.42;;;;;;;;;;5051534;28;20102;-79
2022/06/25 06:00:48;;;;;;;6.13;2.95;;;;;;;;;;5051815;28;20171;-78
2022/06/25 06:03:15;;;;;;;4.93;2.95;;;;;;;;;;5051643;28;20051;-78
2022/06/25 06:05:41;;;;;;;6.15;2.88;;;;;;;;;;5051482;28;20483;-78
2022/06/25 06:08:07;;;;;;;7.18;3.05;;;;;;;;;;5051115;28;20036;-78
2022/06/25 06:10:34;;;;;;;13.75;2.60;;;;;;;;;;5051132;28;20070;-78
2022/06/25 06:13:00;;;;;;;9.60;2.95;;;;;;;;;;5050189;28;20029;-78
2022/06/25 06:15:26;;;;;;;7.13;2.50;;;;;;;;;;5046416;28;20029;-78
2022/06/25 06:17:52;;;;;;;11.77;3.03;;;;;;;;;;5050786;28;20017;-78
2022/06/25 06:20:18;;;;;;;7.25;2.85;;;;;;;;;;5051014;28;20017;-78
2022/06/25 06:22:44;;;;;;;9.65;2.75;;;;;;;;;;5052805;28;20371;-78
2022/06/25 06:25:10;;;;;;;6.28;2.92;;;;;;;;;;5055373;28;20539;-78
2022/06/25 06:27:36;;;;;;;4.95;2.30;;;;;;;;;;5055318;28;20013;-78
2022/06/25 06:30:03;;;;;;;6.82;2.60;;;;;;;;;;5055157;28;20025;-78
2022/06/25 06:32:29;;;;;;;7.88;2.63;;;;;;;;;;5054914;28;20106;-78
2022/06/25 06:34:55;;;;;;;5.60;2.20;;;;;;;;;;5055095;28;20032;-77
2022/06/25 06:37:21;;;;;;;5.95;2.28;;;;;;;;;;5055162;28;20021;-78
2022/06/25 06:39:47;;;;;;;7.50;2.67;;;;;;;;;;5055123;28;20025;-78
2022/06/25 06:42:13;;;;;;;6.13;2.60;;;;;;;;;;5055247;28;20028;-78
2022/06/25 06:44:39;;;;;;;11.88;2.83;;;;;;;;;;5055210;28;20433;-78
2022/06/25 06:47:05;;;;;;;4.72;2.40;;;;;;;;;;5054625;28;20154;-78
2022/06/25 06:49:39;;;;;;;4.68;2.83;;;;;;;;;;5054709;28;20032;-77
2022/06/25 06:52:06;;;;;;;4.38;2.33;;;;;;;;;;5055204;28;20162;-77
2022/06/25 06:54:31;;;;;;;8.48;2.65;;;;;;;;;;5055806;28;20083;-78
2022/06/25 06:56:58;;;;;;;6.03;2.15;;;;;;;;;;5038196;28;20561;-78
2022/06/25 06:59:24;;;;;;;7.43;2.20;;;;;;;;;;5035686;28;20064;-78
2022/06/25 07:01:50;;;;;;;5.30;2.30;;;;;;;;;;5035430;28;20026;-80
2022/06/25 07:04:16;;;;;;;7.15;2.20;;;;;;;;;;5067934;28;20033;-80
2022/06/25 07:06:42;;;;;;;4.95;2.45;;;;;;;;;;5035962;28;20037;-80
2022/06/25 07:09:08;;;;;;;8.23;2.70;;;;;;;;;;5036031;28;20059;-80
2022/06/25 07:11:34;;;;;;;10.98;3.30;;;;;;;;;;5035731;28;20105;-80
2022/06/25 07:14:01;;;;;;;4.75;2.60;;;;;;;;;;5041033;28;20182;-80
2022/06/25 07:16:27;;;;;;;5.70;1.98;;;;;;;;;;5055610;28;20478;-80
2022/06/25 07:18:55;;;;;;;8.25;2.25;;;;;;;;;;5055565;28;20481;-79
2022/06/25 07:21:21;;;;;;;5.95;2.40;;;;;;;;;;5055238;28;20112;-78
2022/06/25 07:23:47;;;;;;;6.88;2.17;;;;;;;;;;5055382;28;20025;-80
2022/06/25 07:26:13;;;;;;;4.72;2.38;;;;;;;;;;5054860;28;20032;-79
2022/06/25 07:28:39;;;;;;;4.57;2.20;;;;;;;;;;5054326;28;20099;-78
2022/06/25 07:31:05;;;;;;;6.20;2.85;;;;;;;;;;5054402;28;20462;-78
2022/06/25 07:33:32;;;;;;;7.15;2.80;;;;;;;;;;5053562;28;20025;-80
2022/06/25 07:35:58;;;;;;;5.85;2.10;;;;;;;;;;5054702;28;20079;-78
2022/06/25 07:38:24;;;;;;;9.98;2.60;;;;;;;;;;5054007;28;20028;-81
2022/06/25 07:40:51;;;;;;;4.07;2.20;;;;;;;;;;5055133;28;20071;-81
2022/06/25 07:43:17;;;;;;;5.25;2.38;;;;;;;;;;5055220;28;20044;-81
2022/06/25 07:45:43;;;;;;;5.25;2.60;;;;;;;;;;5041823;28;20411;-81
2022/06/25 07:48:09;;;;;;;4.88;2.20;;;;;;;;;;5035258;28;20470;-81
2022/06/25 07:53:20;;;;;;;5.28;2.17;;;;;;;;;;5034914;28;20736;-81
2022/06/25 07:55:46;;;;;;;9.20;2.50;;;;;;;;;;5039165;28;20304;-80
2022/06/25 07:58:12;;;;;;;6.85;2.30;;;;;;;;;;5055349;28;20017;-79
2022/06/25 08:00:39;;;;;;;4.88;2.50;;;;;;;;;;5054552;28;20045;-79
2022/06/25 08:03:05;;;;;;;2.92;1.98;;;;;;;;;;5054634;28;20032;-82
2022/06/25 08:05:33;;;;;;;3.75;1.95;;;;;;;;;;5054959;28;20383;-81
2022/06/25 08:07:59;;;;;;;5.30;2.05;;;;;;;;;;5054869;28;20020;-80
2022/06/25 08:10:25;;;;;;;3.72;1.83;;;;;;;;;;5054414;28;20027;-80
2022/06/25 08:12:51;;;;;;;2.78;2.00;;;;;;;;;;5054578;28;20033;-80
2022/06/25 08:15:19;;;;;;;5.15;2.13;;;;;;;;;;5049237;28;20021;-80
2022/06/25 08:17:46;;;;;;;5.93;2.25;;;;;;;;;;5052305;28;20024;-79
2022/06/25 08:20:12;;;;;;;8.10;1.98;;;;;;;;;;5052961;28;20044;-79
2022/06/25 08:22:38;;;;;;;3.05;1.90;;;;;;;;;;5053901;28;20036;-79
2022/06/25 08:25:07;;;;;;;8.00;2.22;;;;;;;;;;5054183;28;20032;-79
2022/06/25 08:27:33;;;;;;;5.57;2.15;;;;;;;;;;5054000;28;20072;-79
2022/06/25 08:29:59;;;;;;;6.47;2.42;;;;;;;;;;5054429;28;20507;-81
2022/06/25 08:32:25;;;;;;;6.10;2.15;;;;;;;;;;5054359;28;20028;-79
2022/06/25 08:34:51;;;;;;;4.68;1.90;;;;;;;;;;5055216;28;20359;-79
2022/06/25 08:37:18;;;;;;;4.68;1.90;;;;;;;;;;5054911;28;20021;-78
2022/06/25 08:39:44;;;;;;;4.97;2.20;;;;;;;;;;5054420;28;20021;-79
2022/06/25 08:42:10;;;;;;;3.38;1.80;;;;;;;;;;5054825;28;20463;-79
2022/06/25 08:44:36;;;;;;;5.00;1.95;;;;;;;;;;5050368;28;20120;-79
2022/06/25 08:47:02;;;;;;;4.78;2.15;;;;;;;;;;5033946;28;20080;-79
2022/06/25 08:49:31;;;;;;;4.72;2.13;;;;;;;;;;5047319;28;20029;-78
2022/06/25 08:52:01;;;;;;;4.90;2.20;;;;;;;;;;5052226;28;20025;-83
2022/06/25 08:54:27;;;;;;;3.90;2.40;;;;;;;;;;5053742;28;20472;-78
2022/06/25 08:56:55;;;;;;;4.43;2.35;;;;;;;;;;5053285;28;20077;-79
2022/06/25 08:59:21;;;;;;;8.40;2.40;;;;;;;;;;5053207;28;20448;-77
2022/06/25 09:01:47;;;;;;;3.72;1.92;;;;;;;;;;5051660;28;20017;-77
2022/06/25 09:04:13;;;;;;;4.57;2.50;;;;;;;;;;5053060;28;20126;-77
2022/06/25 09:06:39;;;;;;;3.20;2.13;;;;;;;;;;5052547;28;20044;-77
2022/06/25 09:09:16;;;;;;;5.28;3.03;;;;;;;;;;5052596;28;20025;-77
2022/06/25 09:11:55;;;;;;;8.75;3.08;;;;;;;;;;5052271;28;20045;-80
2022/06/25 09:14:23;;;;;;;4.43;2.45;;;;;;;;;;5052076;28;20379;-79
2022/06/25 09:16:54;;;;;;;5.88;3.00;;;;;;;;;;5051732;28;20096;-79
2022/06/25 09:19:30;;;;;;;7.28;2.35;;;;;;;;;;5050872;28;20017;-79
2022/06/25 09:21:58;;;;;;;3.38;2.38;;;;;;;;;;5051946;28;20055;-78
2022/06/25 09:24:24;;;;;;;7.10;2.70;;;;;;;;;;5051700;28;20347;-79
2022/06/25 09:26:51;;;;;;;2.63;2.20;;;;;;;;;;5050973;28;20143;-78
2022/06/25 09:29:17;;;;;;;5.95;2.33;;;;;;;;;;5051117;28;20479;-78
2022/06/25 09:31:43;;;;;;;5.88;2.80;;;;;;;;;;5051408;28;20029;-78
2022/06/25 09:34:09;;;;;;;7.07;2.25;;;;;;;;;;5051395;28;20041;-79
2022/06/25 09:36:36;;;;;;;4.32;2.90;;;;;;;;;;5051436;28;20451;-78
2022/06/25 09:39:02;;;;;;;7.75;3.28;;;;;;;;;;5051347;28;20398;-78
2022/06/25 09:41:48;;;;;;;9.52;2.67;;;;;;;;;;5051523;28;20024;-79
2022/06/25 09:44:21;;;;;;;8.20;2.75;;;;;;;;;;5043272;28;20082;-79
2022/06/25 09:46:54;;;;;;;9.20;3.10;;;;;;;;;;5051278;28;20025;-79
2022/06/25 09:49:24;;;;;;;8.18;3.17;;;;;;;;;;5050512;28;20033;-78
2022/06/25 09:51:59;;;;;;;7.80;3.20;;;;;;;;;;5050486;28;20740;-79
2022/06/25 09:54:26;;;;;;;5.43;3.08;;;;;;;;;;5050639;28;20037;-77
2022/06/25 09:56:54;;;;;;;6.97;3.58;;;;;;;;;;5042982;28;20048;-79
2022/06/25 09:59:21;;;;;;;6.60;3.30;;;;;;;;;;5050911;28;20086;-79
2022/06/25 10:01:47;;;;;;;7.68;3.50;;;;;;;;;;5050769;28;20080;-79
2022/06/25 10:04:13;;;;;;;6.90;2.90;;;;;;;;;;5048348;28;20467;-79
2022/06/25 10:06:40;;;;;;;6.57;3.00;;;;;;;;;;5051071;28;20032;-79
2022/06/25 10:09:08;;;;;;;5.88;3.15;;;;;;;;;;5050976;28;20043;-79
2022/06/25 10:11:34;;;;;;;4.35;2.70;;;;;;;;;;5050970;28;20025;-79
2022/06/25 10:14:01;;;;;;;5.03;2.53;;;;;;;;;;5050809;28;20017;-79
2022/06/25 10:16:29;;;;;;;5.45;2.25;;;;;;;;;;5051929;28;20096;-78
2022/06/25 10:18:55;;;;;;;2.38;1.67;;;;;;;;;;5051609;28;20028;-78
2022/06/25 10:21:21;;;;;;;3.85;2.00;;;;;;;;;;5051841;28;20017;-78
2022/06/25 10:23:52;;;;;;;4.28;2.03;;;;;;;;;;5051605;28;20025;-78
2022/06/25 10:26:19;;;;;;;3.50;1.98;;;;;;;;;;5051203;28;20104;-78
2022/06/25 10:28:46;;;;;;;5.13;2.10;;;;;;;;;;5051317;28;20056;-77
2022/06/25 10:31:15;;;;;;;5.32;2.03;;;;;;;;;;5051200;28;20483;-78
2022/06/25 10:34:02;;;;;;;5.22;2.42;;;;;;;;;;5051893;28;20363;-77
2022/06/25 10:36:48;;;;;;;6.25;2.20;;;;;;;;;;5049814;28;20056;-78
2022/06/25 10:39:23;;;;;;;4.40;2.10;;;;;;;;;;5047795;28;20055;-77
2022/06/25 10:44:53;;;;;;;8.65;2.80;;;;;;;;;;5038304;28;20104;-77
2022/06/25 10:47:19;;;;;;;70.03;17.63;;;;;;;;;;5050549;28;20025;-77
2022/06/25 10:49:45;;;;;;;27.58;6.63;;;;;;;;;;5051498;28;20025;-78
2022/06/25 10:52:16;;;;;;;12.98;3.95;;;;;;;;;;5051438;28;20028;-77
2022/06/25 10:54:46;;;;;;;5.93;2.90;;;;;;;;;;5051503;28;20443;-77
2022/06/25 10:57:12;;;;;;;6.55;2.33;;;;;;;;;;5051306;28;20406;-77
2022/06/25 10:59:41;;;;;;;3.30;2.28;;;;;;;;;;5051532;28;20447;-77
2022/06/25 11:02:09;;;;;;;5.30;2.53;;;;;;;;;;5050928;28;20546;-77
2022/06/25 11:04:35;;;;;;;4.35;2.17;;;;;;;;;;5051378;28;20440;-77
2022/06/25 11:07:09;;;;;;;4.13;2.35;;;;;;;;;;5051320;28;20118;-77
2022/06/25 11:09:37;;;;;;;8.65;2.72;;;;;;;;;;5053941;28;20470;-78
2022/06/25 11:12:03;;;;;;;6.72;2.22;;;;;;;;;;5054830;28;20124;-77
2022/06/25 11:14:29;;;;;;;5.35;2.30;;;;;;;;;;5054466;28;20032;-77
2022/06/25 11:16:55;;;;;;;4.47;2.00;;;;;;;;;;5054808;28;20025;-76
2022/06/25 11:19:22;;;;;;;3.78;2.00;;;;;;;;;;5054578;28;20088;-77
2022/06/25 11:21:49;;;;;;;4.75;2.45;;;;;;;;;;5054489;28;20127;-76
2022/06/25 11:24:20;;;;;;;4.22;1.90;;;;;;;;;;5054519;28;20090;-77
2022/06/25 11:29:36;;;;;;;4.55;2.05;;;;;;;;;;5054641;28;20035;-77
2022/06/25 11:32:03;;;;;;;5.93;2.03;;;;;;;;;;5048955;28;20028;-77
2022/06/25 11:34:29;;;;;;;3.28;2.38;;;;;;;;;;5053571;28;20021;-77
2022/06/25 11:37:00;;;;;;;3.70;2.20;;;;;;;;;;5053127;28;20054;-79
2022/06/25 11:39:27;;;;;;;4.25;1.98;;;;;;;;;;5054703;28;20025;-79
2022/06/25 11:41:53;;;;;;;5.70;2.25;;;;;;;;;;5054685;28;20157;-79
2022/06/25 11:44:20;;;;;;;4.10;2.15;;;;;;;;;;5053095;28;20029;-79
2022/06/25 11:46:47;;;;;;;11.40;1.95;;;;;;;;;;5034925;28;20388;-79
2022/06/25 11:49:13;;;;;;;3.45;1.80;;;;;;;;;;5045417;28;20032;-79
2022/06/25 11:51:46;;;;;;;8.30;2.30;;;;;;;;;;5055190;28;20024;-79
2022/06/25 11:54:13;;;;;;;5.35;1.73;;;;;;;;;;5054333;28;20116;-79
2022/06/25 11:56:46;;;;;;;5.10;2.22;;;;;;;;;;5054237;28;20084;-75
2022/06/25 11:59:14;;;;;;;4.40;2.20;;;;;;;;;;5054609;28;20143;-76
2022/06/25 12:01:40;;;;;;;4.40;1.67;;;;;;;;;;5054826;28;20016;-78
2022/06/25 12:04:07;;;;;;;3.95;1.80;;;;;;;;;;5054385;28;20060;-79
2022/06/25 12:06:34;;;;;;;6.85;2.05;;;;;;;;;;5052389;28;20050;-79
2022/06/25 12:09:00;;;;;;;2.67;1.77;;;;;;;;;;5053986;28;20049;-78
2022/06/25 12:11:28;;;;;;;2.63;1.80;;;;;;;;;;5054032;28;20035;-79
2022/06/25 12:13:55;;;;;;;4.45;2.05;;;;;;;;;;5054175;28;20051;-79
2022/06/25 12:16:21;;;;;;;3.00;1.55;;;;;;;;;;5054066;28;20036;-79
2022/06/25 12:18:47;;;;;;;3.35;1.88;;;;;;;;;;5054014;28;20351;-80
2022/06/25 12:21:20;;;;;;;6.10;2.38;;;;;;;;;;5053348;28;20025;-79
2022/06/25 12:23:53;;;;;;;4.53;1.80;;;;;;;;;;5054209;28;20479;-79
2022/06/25 12:26:28;;;;;;;6.13;1.70;;;;;;;;;;5053734;28;20036;-79
2022/06/25 12:29:05;;;;;;;7.57;2.08;;;;;;;;;;5054032;28;20100;-80
2022/06/25 12:31:31;;;;;;;5.50;2.00;;;;;;;;;;5053970;28;20025;-79
2022/06/25 12:33:57;;;;;;;2.83;1.90;;;;;;;;;;5053508;28;20025;-79
2022/06/25 12:36:24;;;;;;;2.35;1.60;;;;;;;;;;5056317;28;20025;-79
2022/06/25 12:38:50;;;;;;;4.55;1.50;;;;;;;;;;5054812;28;20035;-79
2022/06/25 12:41:16;;;;;;;4.32;1.67;;;;;;;;;;5054810;28;20081;-79
2022/06/25 12:43:44;;;;;;;2.80;1.80;;;;;;;;;;5055227;28;20033;-78
2022/06/25 12:46:11;;;;;;;4.28;2.28;;;;;;;;;;5054281;28;20027;-79
2022/06/25 12:48:37;;;;;;;1.95;1.40;;;;;;;;;;5054130;28;20029;-80
2022/06/25 12:51:08;;;;;;;4.03;1.85;;;;;;;;;;5053616;28;20020;-80
2022/06/25 12:53:34;;;;;;;2.70;1.55;;;;;;;;;;5053725;28;20151;-79
2022/06/25 12:56:01;;;;;;;5.15;2.10;;;;;;;;;;5053492;28;20093;-79
2022/06/25 12:58:33;;;;;;;2.42;1.55;;;;;;;;;;5053514;28;20028;-80
2022/06/25 13:00:59;;;;;;;3.13;1.40;;;;;;;;;;5053522;28;20017;-80
2022/06/25 13:03:25;;;;;;;4.05;1.92;;;;;;;;;;5053387;28;20036;-79
2022/06/25 13:05:51;;;;;;;3.13;2.03;;;;;;;;;;5053291;28;20028;-79
2022/06/25 13:08:18;;;;;;;3.72;1.88;;;;;;;;;;5053788;28;20017;-79
2022/06/25 13:10:44;;;;;;;2.30;1.77;;;;;;;;;;5052567;28;20025;-79
2022/06/25 13:13:10;;;;;;;3.30;1.83;;;;;;;;;;5052942;28;20063;-79
2022/06/25 13:15:36;;;;;;;3.58;2.08;;;;;;;;;;5051973;28;20021;-79
2022/06/25 13:18:02;;;;;;;5.22;2.40;;;;;;;;;;5051752;28;20021;-80
2022/06/25 13:20:28;;;;;;;3.70;2.15;;;;;;;;;;5053013;28;20486;-79
2022/06/25 13:22:55;;;;;;;8.57;2.60;;;;;;;;;;5053197;28;20064;-81
2022/06/25 13:25:24;;;;;;;7.65;3.53;;;;;;;;;;5053728;28;20375;-79
2022/06/25 13:27:51;;;;;;;7.47;3.00;;;;;;;;;;5051489;28;20100;-78
2022/06/25 13:30:18;;;;;;;7.60;3.05;;;;;;;;;;5051859;28;20341;-80
2022/06/25 13:32:44;;;;;;;4.57;2.55;;;;;;;;;;5052826;28;20033;-80
2022/06/25 13:35:10;;;;;;;5.10;2.75;;;;;;;;;;5053008;28;20067;-80
2022/06/25 13:37:36;;;;;;;7.30;2.47;;;;;;;;;;5051336;28;20079;-80
2022/06/25 13:40:03;;;;;;;4.55;2.67;;;;;;;;;;5052609;28;20021;-80
2022/06/25 13:42:29;;;;;;;3.53;2.28;;;;;;;;;;5052776;28;20032;-79
2022/06/25 13:44:55;;;;;;;7.00;2.65;;;;;;;;;;5052915;28;20095;-79
2022/06/25 13:47:21;;;;;;;6.20;3.35;;;;;;;;;;5052711;28;20030;-79
2022/06/25 13:49:48;;;;;;;6.18;2.83;;;;;;;;;;5052666;28;20021;-80
2022/06/25 13:52:15;;;;;;;3.90;2.50;;;;;;;;;;5052459;28;20063;-80
2022/06/25 13:54:41;;;;;;;5.18;2.95;;;;;;;;;;5051052;28;20387;-80
2022/06/25 13:57:07;;;;;;;4.57;2.42;;;;;;;;;;5052060;28;20375;-80
2022/06/25 13:59:33;;;;;;;6.80;2.20;;;;;;;;;;5052124;28;20024;-80
2022/06/25 14:01:59;;;;;;;4.38;2.30;;;;;;;;;;5052164;28;20333;-80
2022/06/25 14:04:25;;;;;;;2.90;1.90;;;;;;;;;;5052467;28;20475;-80
2022/06/25 14:06:51;;;;;;;7.53;2.80;;;;;;;;;;5052083;28;20458;-80
2022/06/25 14:09:17;;;;;;;5.72;2.45;;;;;;;;;;5052468;28;20074;-80
2022/06/25 14:11:43;;;;;;;5.18;2.45;;;;;;;;;;5052327;28;20029;-80
2022/06/25 14:14:11;;;;;;;8.82;2.63;;;;;;;;;;5051069;28;20145;-80
2022/06/25 14:16:37;;;;;;;4.00;2.28;;;;;;;;;;5052104;28;20028;-79
2022/06/25 14:19:03;;;;;;;4.00;2.30;;;;;;;;;;5051529;28;20024;-80
2022/06/25 14:21:30;;;;;;;4.00;2.47;;;;;;;;;;5051741;28;20036;-80
2022/06/25 14:23:56;;;;;;;2.92;2.20;;;;;;;;;;5050229;28;20367;-80
2022/06/25 14:26:22;;;;;;;5.45;2.90;;;;;;;;;;5051883;28;20029;-81
2022/06/25 14:28:48;;;;;;;4.43;2.83;;;;;;;;;;5051848;28;20045;-80
2022/06/25 14:31:14;;;;;;;6.38;3.20;;;;;;;;;;5051678;28;20494;-80
2022/06/25 14:33:40;;;;;;;4.30;2.78;;;;;;;;;;5049623;28;20021;-79
2022/06/25 14:44:20;;;;;;;7.63;3.28;;;;;;;;;;5051089;28;20110;-80
2022/06/25 14:46:46;;;;;;;3.97;2.63;;;;;;;;;;5054995;28;20091;-79
2022/06/25 14:49:12;;;;;;;4.72;2.83;;;;;;;;;;5054559;28;20017;-80
2022/06/25 14:51:39;;;;;;;3.83;3.00;;;;;;;;;;5054707;28;20021;-80
2022/06/25 14:54:05;;;;;;;9.32;3.47;;;;;;;;;;5054606;28;20426;-80
2022/06/25 14:56:32;;;;;;;5.03;3.25;;;;;;;;;;5055129;28;20048;-80
2022/06/25 14:58:58;;;;;;;2.70;2.38;;;;;;;;;;5053731;28;20027;-81
2022/06/25 15:01:24;;;;;;;6.45;2.60;;;;;;;;;;5055005;28;20021;-81
2022/06/25 15:03:50;;;;;;;4.82;2.33;;;;;;;;;;5055204;28;21315;-81